createdAt,value
2023-04-28T00:01:19.912Z,58.10
2023-04-28T00:03:21.467Z,56.80
2023-04-28T00:05:23.247Z,59.53
2023-04-28T00:07:25.248Z,63.13
2023-04-28T00:09:26.725Z,65.53
2023-04-28T00:11:28.218Z,63.40
2023-04-28T00:13:29.662Z,65.82
2023-04-28T00:15:31.088Z,67.28
2023-04-28T00:17:32.580Z,68.47
2023-04-28T00:19:34.644Z,70.00
2023-04-28T00:21:36.128Z,69.60
2023-04-28T00:23:37.812Z,65.60
2023-04-28T00:25:39.496Z,70.95
2023-04-28T00:27:40.965Z,72.20
2023-04-28T00:29:42.404Z,73.68
2023-04-28T00:31:44.649Z,66.97
2023-04-28T00:33:46.157Z,69.55
2023-04-28T00:35:47.621Z,61.25
2023-04-28T00:37:49.456Z,58.97
2023-04-28T00:39:57.511Z,58.88
2023-04-28T00:41:59.207Z,62.65
2023-04-28T00:44:00.935Z,64.05
2023-04-28T00:46:02.846Z,63.78
2023-04-28T00:48:04.508Z,65.20
2023-04-28T00:50:06.627Z,64.95
2023-04-28T00:52:08.438Z,64.68
2023-04-28T00:54:14.103Z,63.55
2023-04-28T00:56:15.994Z,63.88
2023-04-28T00:58:17.445Z,66.95
2023-04-28T01:00:19.027Z,65.95
2023-04-28T01:02:20.615Z,65.30
2023-04-28T01:04:23.205Z,64.80
2023-04-28T01:06:25.058Z,64.05
2023-04-28T01:08:31.163Z,64.35
2023-04-28T01:10:33.224Z,63.38
2023-04-28T01:12:41.750Z,64.63
2023-04-28T01:14:43.393Z,59.75
2023-04-28T01:16:45.042Z,58.85
2023-04-28T01:18:48.309Z,63.47
2023-04-28T01:20:50.334Z,62.20
2023-04-28T01:22:52.108Z,61.83
2023-04-28T01:24:54.101Z,61.33
2023-04-28T01:26:55.643Z,63.13
2023-04-28T01:28:57.566Z,61.78
2023-04-28T01:30:59.457Z,60.10
2023-04-28T01:33:02.393Z,57.78
2023-04-28T01:35:04.290Z,55.95
2023-04-28T01:37:09.218Z,55.30
2023-04-28T01:39:12.338Z,56.78
2023-04-28T01:41:16.132Z,56.17
2023-04-28T01:43:17.603Z,53.85
2023-04-28T01:45:19.117Z,52.33
2023-04-28T01:47:20.595Z,49.22
2023-04-28T01:49:22.298Z,47.95
2023-04-28T01:51:23.705Z,46.72
2023-04-28T01:53:25.369Z,46.55
2023-04-28T01:55:27.348Z,43.97
2023-04-28T01:57:29.234Z,41.42
2023-04-28T01:59:32.232Z,44.30
2023-04-28T02:01:33.747Z,43.53
2023-04-28T02:03:35.966Z,43.75
2023-04-28T02:05:38.440Z,42.47
2023-04-28T02:07:39.976Z,43.88
2023-04-28T02:09:41.492Z,43.95
2023-04-28T02:11:42.937Z,43.78
2023-04-28T02:13:44.507Z,42.58
2023-04-28T02:15:46.488Z,41.72
2023-04-28T02:17:48.086Z,40.63
2023-04-28T02:19:54.862Z,38.47
2023-04-28T02:21:56.347Z,38.55
2023-04-28T02:23:57.748Z,39.95
2023-04-28T02:26:03.660Z,37.47
2023-04-28T02:28:05.075Z,35.10
2023-04-28T02:30:09.752Z,33.80
2023-04-28T02:32:11.735Z,32.58
2023-04-28T02:34:14.495Z,34.65
2023-04-28T02:36:16.230Z,31.65
2023-04-28T02:38:17.710Z,33.17
2023-04-28T02:40:19.330Z,32.80
2023-04-28T02:42:21.028Z,31.60
2023-04-28T02:44:22.672Z,30.85
2023-04-28T02:46:24.393Z,30.92
2023-04-28T02:48:26.428Z,31.65
2023-04-28T02:50:28.168Z,32.90
2023-04-28T02:52:29.656Z,28.20
2023-04-28T02:54:33.001Z,29.52
2023-04-28T02:56:37.000Z,28.08
2023-04-28T02:58:39.518Z,27.70
2023-04-28T03:00:41.231Z,25.73
2023-04-28T03:02:42.739Z,25.35
2023-04-28T03:04:44.289Z,25.45
2023-04-28T03:06:46.033Z,25.75
2023-04-28T03:08:47.589Z,24.85
2023-04-28T03:10:49.059Z,24.13
2023-04-28T03:12:50.805Z,24.55
2023-04-28T03:14:53.244Z,23.92
2023-04-28T03:16:54.790Z,23.63
2023-04-28T03:18:56.226Z,23.10
2023-04-28T03:20:57.679Z,22.40
2023-04-28T03:23:02.233Z,22.13
2023-04-28T03:25:03.895Z,21.55
2023-04-28T03:27:09.060Z,20.75
2023-04-28T03:29:11.686Z,20.25
2023-04-28T03:31:13.291Z,19.55
2023-04-28T03:33:14.773Z,19.67
2023-04-28T03:35:16.380Z,18.50
2023-04-28T03:37:18.615Z,18.58
2023-04-28T03:39:20.105Z,18.45
2023-04-28T03:41:21.702Z,18.10
2023-04-28T03:43:41.844Z,16.92
2023-04-28T03:46:06.765Z,16.75
2023-04-28T03:48:08.639Z,16.92
2023-04-28T03:50:11.415Z,17.02
2023-04-28T03:52:13.131Z,15.52
2023-04-28T03:54:14.775Z,14.88
2023-04-28T03:56:16.741Z,14.38
2023-04-28T03:58:18.447Z,14.48
2023-04-28T04:00:20.321Z,14.63
2023-04-28T04:02:23.951Z,13.70
2023-04-28T04:04:25.976Z,15.20
2023-04-28T04:06:28.173Z,15.10
2023-04-28T04:08:30.192Z,13.75
2023-04-28T04:10:31.742Z,14.85
2023-04-28T04:12:33.349Z,12.90
2023-04-28T04:14:35.147Z,13.05
2023-04-28T04:16:37.190Z,12.63
2023-04-28T04:18:39.991Z,11.45
2023-04-28T04:20:57.052Z,13.07
2023-04-28T04:22:58.685Z,12.63
2023-04-28T04:25:00.219Z,12.15
2023-04-28T04:27:01.724Z,11.45
2023-04-28T04:29:07.862Z,11.25
2023-04-28T04:31:09.501Z,12.15
2023-04-28T04:33:11.298Z,11.75
2023-04-28T04:35:12.803Z,11.07
2023-04-28T04:37:14.368Z,11.23
2023-04-28T04:39:22.205Z,10.82
2023-04-28T04:41:23.885Z,10.48
2023-04-28T04:43:33.284Z,10.75
2023-04-28T04:45:35.792Z,9.85
2023-04-28T04:47:37.498Z,9.82
2023-04-28T04:49:39.078Z,10.32
2023-04-28T04:51:40.604Z,10.20
2023-04-28T04:53:42.260Z,9.38
2023-04-28T04:55:44.314Z,9.07
2023-04-28T04:57:46.474Z,9.90
2023-04-28T04:59:57.005Z,8.68
2023-04-28T05:01:58.657Z,8.63
2023-04-28T05:04:00.700Z,8.82
2023-04-28T05:06:03.666Z,9.55
2023-04-28T05:08:13.493Z,8.85
2023-04-28T05:10:40.901Z,8.85
2023-04-28T05:16:18.141Z,8.50
2023-04-28T05:18:44.469Z,8.13
2023-04-28T05:23:38.052Z,9.13
2023-04-28T05:25:49.092Z,8.95
2023-04-28T05:31:15.197Z,7.47
2023-04-28T05:33:26.140Z,6.57
2023-04-28T05:35:28.132Z,6.72
2023-04-28T05:37:31.799Z,6.90
2023-04-28T05:39:48.241Z,7.18
2023-04-28T05:41:52.786Z,6.55
2023-04-28T05:43:54.340Z,6.43
2023-04-28T05:45:56.316Z,6.88
2023-04-28T05:47:58.140Z,6.47
2023-04-28T05:49:59.627Z,6.10
2023-04-28T05:52:02.098Z,6.38
2023-04-28T05:54:03.736Z,6.20
2023-04-28T05:56:08.195Z,6.82
2023-04-28T05:58:09.873Z,6.30
2023-04-28T06:00:13.517Z,5.65
2023-04-28T06:02:15.090Z,5.72
2023-04-28T06:04:17.320Z,5.78
2023-04-28T06:06:19.504Z,6.13
2023-04-28T06:08:21.364Z,5.90
2023-04-28T06:10:23.638Z,6.65
2023-04-28T06:12:25.109Z,5.30
2023-04-28T06:14:26.916Z,5.80
2023-04-28T06:16:28.804Z,6.25
2023-04-28T06:18:32.840Z,5.65
2023-04-28T06:20:36.099Z,5.50
2023-04-28T06:22:38.540Z,5.35
2023-04-28T06:24:41.709Z,5.32
2023-04-28T06:26:45.844Z,5.28
2023-04-28T06:28:47.679Z,5.32
2023-04-28T06:30:49.273Z,5.38
2023-04-28T06:32:51.622Z,5.18
2023-04-28T06:34:53.265Z,5.00
2023-04-28T06:36:56.158Z,5.40
2023-04-28T06:38:58.847Z,5.28
2023-04-28T06:41:00.353Z,4.70
2023-04-28T06:43:03.387Z,4.75
2023-04-28T06:45:10.931Z,4.93
2023-04-28T06:47:12.789Z,4.90
2023-04-28T06:49:14.443Z,5.40
2023-04-28T06:51:17.043Z,4.68
2023-04-28T06:53:18.577Z,4.80
2023-04-28T06:55:20.130Z,5.10
2023-04-28T06:57:21.852Z,4.70
2023-04-28T06:59:24.166Z,4.97
2023-04-28T07:01:25.795Z,4.53
2023-04-28T07:03:27.829Z,4.65
2023-04-28T07:05:29.437Z,3.90
2023-04-28T07:07:31.240Z,4.75
2023-04-28T07:09:32.704Z,4.28
2023-04-28T07:11:34.115Z,4.25
2023-04-28T07:13:35.640Z,4.28
2023-04-28T07:15:37.352Z,4.53
2023-04-28T07:17:38.972Z,4.43
2023-04-28T07:19:40.952Z,3.97
2023-04-28T07:21:42.491Z,4.45
2023-04-28T07:23:44.222Z,4.35
2023-04-28T07:25:46.207Z,4.20
2023-04-28T07:27:47.712Z,4.15
2023-04-28T07:29:49.306Z,3.90
2023-04-28T07:31:50.806Z,4.00
2023-04-28T07:33:52.337Z,3.47
2023-04-28T07:35:54.192Z,4.28
2023-04-28T07:37:56.037Z,3.90
2023-04-28T07:39:57.507Z,4.00
2023-04-28T07:41:59.039Z,4.10
2023-04-28T07:44:00.555Z,3.67
2023-04-28T07:46:02.147Z,3.17
2023-04-28T07:48:04.143Z,3.28
2023-04-28T07:50:06.948Z,3.42
2023-04-28T07:52:09.782Z,3.80
2023-04-28T07:54:11.374Z,3.90
2023-04-28T07:56:13.063Z,3.40
2023-04-28T07:58:14.914Z,3.88
2023-04-28T08:00:18.082Z,3.50
2023-04-28T08:02:20.548Z,3.47
2023-04-28T08:04:22.639Z,3.50
2023-04-28T08:06:24.438Z,3.55
2023-04-28T08:08:26.358Z,3.17
2023-04-28T08:10:28.433Z,3.40
2023-04-28T08:12:30.147Z,3.10
2023-04-28T08:14:31.730Z,3.58
2023-04-28T08:16:34.496Z,3.58
2023-04-28T08:18:36.084Z,3.58
2023-04-28T08:20:37.492Z,2.83
2023-04-28T08:22:38.902Z,3.55
2023-04-28T08:24:40.632Z,3.60
2023-04-28T08:26:42.378Z,3.17
2023-04-28T08:28:44.367Z,3.08
2023-04-28T08:30:46.139Z,3.22
2023-04-28T08:32:47.935Z,3.30
2023-04-28T08:34:50.008Z,3.25
2023-04-28T08:36:51.886Z,3.67
2023-04-28T08:38:53.616Z,3.28
2023-04-28T08:40:55.037Z,3.47
2023-04-28T08:42:56.455Z,3.28
2023-04-28T08:44:59.812Z,3.22
2023-04-28T08:47:04.006Z,3.35
2023-04-28T08:49:06.486Z,2.90
2023-04-28T08:51:08.351Z,3.17
2023-04-28T08:53:13.330Z,2.90
2023-04-28T08:55:15.701Z,3.15
2023-04-28T08:57:18.573Z,3.15
2023-04-28T08:59:20.969Z,3.35
2023-04-28T09:01:23.628Z,2.85
2023-04-28T09:03:26.835Z,3.53
2023-04-28T09:05:28.597Z,2.78
2023-04-28T09:07:30.317Z,3.10
2023-04-28T09:09:35.549Z,2.88
2023-04-28T09:11:51.269Z,3.08
2023-04-28T09:13:52.921Z,2.90
2023-04-28T09:16:00.361Z,3.00
2023-04-28T09:18:03.884Z,2.85
2023-04-28T09:20:20.392Z,2.83
2023-04-28T09:22:28.300Z,2.95
2023-04-28T09:24:34.022Z,3.08
2023-04-28T09:26:50.614Z,2.95
2023-04-28T09:28:52.512Z,3.30
2023-04-28T09:30:54.782Z,2.80
2023-04-28T09:33:07.648Z,2.63
2023-04-28T09:35:10.618Z,2.58
2023-04-28T09:37:22.432Z,2.83
2023-04-28T09:39:36.389Z,3.00
2023-04-28T09:41:45.399Z,2.88
2023-04-28T09:43:46.910Z,2.92
2023-04-28T09:45:48.605Z,3.33
2023-04-28T09:47:50.637Z,2.67
2023-04-28T09:50:00.434Z,2.42
2023-04-28T09:52:13.323Z,2.72
2023-04-28T09:54:16.081Z,2.95
2023-04-28T09:56:21.083Z,2.90
2023-04-28T09:58:24.646Z,2.70
2023-04-28T10:00:26.754Z,2.60
2023-04-28T10:04:34.917Z,3.25
2023-04-28T10:06:36.903Z,3.13
2023-04-28T10:08:40.517Z,2.60
2023-04-28T10:10:43.445Z,3.22
2023-04-28T10:12:45.883Z,3.05
2023-04-28T10:14:54.309Z,3.30
2023-04-28T10:16:57.360Z,3.20
2023-04-28T10:18:59.750Z,3.35
2023-04-28T10:21:06.065Z,3.33
2023-04-28T10:23:26.175Z,3.00
2023-04-28T10:25:31.263Z,3.55
2023-04-28T10:27:35.729Z,3.38
2023-04-28T10:29:37.652Z,3.88
2023-04-28T10:31:39.193Z,4.05
2023-04-28T10:33:41.930Z,4.20
2023-04-28T10:35:47.727Z,5.03
2023-04-28T10:38:09.090Z,5.18
2023-04-28T10:40:35.968Z,5.78
2023-04-28T10:42:56.773Z,6.75
2023-04-28T10:44:58.280Z,6.68
2023-04-28T10:47:10.789Z,6.10
2023-04-28T10:49:12.317Z,5.22
2023-04-28T10:51:16.667Z,4.78
2023-04-28T10:53:18.161Z,4.35
2023-04-28T10:55:39.676Z,4.88
2023-04-28T10:57:42.901Z,4.57
2023-04-28T10:59:44.460Z,4.50
2023-04-28T11:01:46.517Z,4.28
2023-04-28T11:03:49.463Z,4.40
2023-04-28T11:06:23.660Z,4.30
2023-04-28T11:08:25.142Z,4.45
2023-04-28T11:10:47.052Z,4.57
2023-04-28T11:13:27.414Z,5.55
2023-04-28T11:15:29.089Z,6.35
2023-04-28T11:17:41.300Z,7.45
2023-04-28T11:19:45.461Z,8.57
2023-04-28T11:21:48.389Z,9.65
2023-04-28T11:23:50.438Z,10.43
2023-04-28T11:25:58.041Z,11.60
2023-04-28T11:28:07.245Z,14.18
2023-04-28T11:30:30.266Z,15.27
2023-04-28T11:32:35.966Z,14.73
2023-04-28T11:34:38.065Z,16.40
2023-04-28T11:36:41.774Z,17.10
2023-04-28T11:38:44.676Z,17.63
2023-04-28T11:40:59.204Z,18.35
2023-04-28T11:43:01.886Z,22.65
2023-04-28T11:45:04.491Z,25.00
2023-04-28T11:47:07.368Z,25.73
2023-04-28T11:49:09.542Z,29.40
2023-04-28T11:51:26.446Z,32.22
2023-04-28T11:53:44.670Z,31.65
2023-04-28T11:55:46.183Z,32.60
2023-04-28T11:57:47.787Z,32.38
2023-04-28T11:59:50.448Z,34.53
2023-04-28T12:02:01.681Z,36.47
2023-04-28T12:04:03.968Z,36.63
2023-04-28T12:06:05.567Z,37.97
2023-04-28T12:08:07.303Z,41.75
2023-04-28T12:10:15.699Z,40.92
2023-04-28T12:12:45.208Z,39.97
2023-04-28T12:14:55.985Z,38.70
2023-04-28T12:16:58.498Z,41.38
2023-04-28T12:19:06.614Z,41.78
2023-04-28T12:21:21.316Z,44.38
2023-04-28T12:23:36.361Z,41.92
2023-04-28T12:25:45.816Z,46.67
2023-04-28T12:28:02.697Z,45.92
2023-04-28T12:30:25.137Z,46.88
2023-04-28T12:32:40.593Z,51.25
2023-04-28T12:34:44.175Z,52.42
2023-04-28T12:36:46.476Z,54.17
2023-04-28T12:38:49.323Z,52.97
2023-04-28T12:40:51.276Z,52.25
2023-04-28T12:42:53.045Z,51.97
2023-04-28T12:44:54.573Z,53.72
2023-04-28T12:46:56.312Z,54.92
2023-04-28T12:48:57.852Z,56.42
2023-04-28T12:50:59.307Z,54.65
2023-04-28T12:53:00.846Z,55.20
2023-04-28T12:55:03.118Z,58.10
2023-04-28T12:57:05.426Z,57.42
2023-04-28T12:59:07.342Z,51.90
2023-04-28T13:01:09.898Z,51.28
2023-04-28T13:03:11.553Z,54.17
2023-04-28T13:05:14.679Z,60.88
2023-04-28T13:07:16.239Z,56.67
2023-04-28T13:09:17.984Z,59.78
2023-04-28T13:11:22.938Z,62.10
2023-04-28T13:13:24.774Z,62.13
2023-04-28T13:15:27.195Z,63.58
2023-04-28T13:17:28.657Z,60.30
2023-04-28T13:19:31.642Z,58.28
2023-04-28T13:21:33.204Z,65.30
2023-04-28T13:23:34.677Z,62.08
2023-04-28T13:25:36.096Z,65.97
2023-04-28T13:27:38.080Z,62.60
2023-04-28T13:29:40.988Z,62.90
2023-04-28T13:31:42.536Z,64.55
2023-04-28T13:33:44.122Z,66.97
2023-04-28T13:35:45.819Z,71.03
2023-04-28T13:37:47.312Z,71.00
2023-04-28T13:39:48.762Z,65.05
2023-04-28T13:41:50.536Z,66.30
2023-04-28T13:43:52.022Z,62.30
2023-04-28T13:45:53.541Z,64.20
2023-04-28T13:47:55.327Z,72.63
2023-04-28T13:49:56.958Z,75.05
2023-04-28T13:51:58.485Z,77.32
2023-04-28T13:53:59.983Z,74.97
2023-04-28T13:56:01.779Z,71.07
2023-04-28T13:58:05.038Z,76.25
2023-04-28T14:00:07.031Z,80.03
2023-04-28T14:02:11.509Z,78.72
2023-04-28T14:04:13.297Z,84.65
2023-04-28T14:06:14.961Z,82.53
2023-04-28T14:08:18.810Z,82.50
2023-04-28T14:10:22.892Z,83.30
2023-04-28T14:12:24.332Z,76.13
2023-04-28T14:14:26.324Z,76.82
2023-04-28T14:16:28.087Z,79.97
2023-04-28T14:18:29.779Z,82.70
2023-04-28T14:20:31.332Z,83.65
2023-04-28T14:22:33.035Z,85.65
2023-04-28T14:24:34.811Z,83.45
2023-04-28T14:26:36.723Z,86.82
2023-04-28T14:28:38.520Z,86.47
2023-04-28T14:30:39.956Z,87.32
2023-04-28T14:32:41.463Z,86.53
2023-04-28T14:34:43.259Z,85.28
2023-04-28T14:36:44.700Z,86.43
2023-04-28T14:38:46.157Z,87.70
2023-04-28T14:40:47.640Z,88.15
2023-04-28T14:42:49.282Z,87.63
2023-04-28T14:44:52.728Z,86.75
2023-04-28T14:46:56.194Z,84.47
2023-04-28T14:48:58.547Z,86.82
2023-04-28T14:51:00.007Z,89.40
2023-04-28T14:53:05.657Z,87.75
2023-04-28T14:55:07.606Z,89.60
2023-04-28T14:57:09.056Z,92.85
2023-04-28T14:59:11.584Z,89.45
2023-04-28T15:01:13.290Z,90.88
2023-04-28T15:03:15.507Z,88.65
2023-04-28T15:05:17.276Z,91.07
2023-04-28T15:07:19.362Z,90.47
2023-04-28T15:09:20.849Z,94.82
2023-04-28T15:11:22.316Z,94.43
2023-04-28T15:13:25.345Z,97.65
2023-04-28T15:15:27.440Z,95.10
2023-04-28T15:17:28.848Z,98.20
2023-04-28T15:19:31.258Z,98.45
2023-04-28T15:21:32.964Z,102.25
2023-04-28T15:23:34.687Z,100.53
2023-04-28T15:25:36.104Z,99.95
2023-04-28T15:27:37.874Z,104.30
2023-04-28T15:29:40.039Z,101.90
2023-04-28T15:31:41.592Z,100.50
2023-04-28T15:33:43.044Z,100.93
2023-04-28T15:35:45.028Z,101.65
2023-04-28T15:37:52.102Z,101.05
2023-04-28T15:39:54.083Z,102.13
2023-04-28T15:41:56.131Z,103.70
2023-04-28T15:43:57.663Z,100.28
2023-04-28T15:46:00.785Z,104.18
2023-04-28T15:48:02.343Z,102.22
2023-04-28T15:50:03.976Z,104.60
2023-04-28T15:52:05.690Z,106.75
2023-04-28T15:54:07.310Z,96.78
2023-04-28T15:56:08.784Z,103.85
2023-04-28T15:58:10.866Z,98.22
2023-04-28T16:00:14.294Z,104.05
2023-04-28T16:02:15.811Z,97.90
2023-04-28T16:04:17.814Z,99.97
2023-04-28T16:06:19.431Z,99.22
2023-04-28T16:08:24.198Z,95.38
2023-04-28T16:10:25.646Z,94.32
2023-04-28T16:12:27.330Z,96.70
2023-04-28T16:14:28.802Z,90.70
2023-04-28T16:16:30.589Z,94.22
2023-04-28T16:18:33.029Z,94.03
2023-04-28T16:20:34.504Z,96.85
2023-04-28T16:22:36.891Z,95.57
2023-04-28T16:24:42.544Z,98.72
2023-04-28T16:26:44.026Z,102.57
2023-04-28T16:28:45.929Z,100.47
2023-04-28T16:30:47.624Z,103.15
2023-04-28T16:32:49.282Z,98.57
2023-04-28T16:34:51.798Z,98.32
2023-04-28T16:36:53.481Z,97.65
2023-04-28T16:38:55.083Z,92.28
2023-04-28T16:40:56.819Z,90.03
2023-04-28T16:42:58.261Z,91.78
2023-04-28T16:44:59.947Z,92.05
2023-04-28T16:47:02.078Z,89.18
2023-04-28T16:49:03.671Z,89.93
2023-04-28T16:51:08.451Z,87.57
2023-04-28T16:53:10.650Z,85.57
2023-04-28T16:55:12.501Z,83.85
2023-04-28T16:57:13.931Z,75.95
2023-04-28T16:59:15.491Z,69.53
2023-04-28T17:01:16.944Z,45.63
2023-04-28T17:03:21.035Z,54.95
2023-04-28T17:05:25.517Z,64.95
2023-04-28T17:07:29.374Z,68.03
2023-04-28T17:09:35.802Z,69.40
2023-04-28T17:11:40.282Z,71.70
2023-04-28T17:13:42.065Z,75.88
2023-04-28T17:15:43.679Z,72.88
2023-04-28T17:17:51.088Z,72.28
2023-04-28T17:19:53.411Z,73.00
2023-04-28T17:21:55.622Z,72.05
2023-04-28T17:23:58.442Z,86.72
2023-04-28T17:25:59.834Z,87.40
2023-04-28T17:28:01.225Z,81.70
2023-04-28T17:30:03.322Z,80.18
2023-04-28T17:32:05.006Z,76.25
2023-04-28T17:34:06.614Z,68.55
2023-04-28T17:36:08.662Z,70.18
2023-04-28T17:38:10.117Z,64.05
2023-04-28T17:40:12.044Z,62.92
2023-04-28T17:42:13.550Z,59.95
2023-04-28T17:44:14.969Z,60.08
2023-04-28T17:46:17.206Z,58.13
2023-04-28T17:48:18.721Z,57.47
2023-04-28T17:50:20.225Z,58.05
2023-04-28T17:52:22.446Z,54.33
2023-04-28T17:54:23.986Z,55.15
2023-04-28T17:56:25.685Z,53.55
2023-04-28T17:58:27.250Z,54.88
2023-04-28T18:00:28.707Z,51.20
2023-04-28T18:02:31.531Z,50.55
2023-04-28T18:04:33.206Z,49.65
2023-04-28T18:06:34.736Z,50.78
2023-04-28T18:08:37.146Z,50.90
2023-04-28T18:10:38.623Z,50.00
2023-04-28T18:12:40.079Z,47.60
2023-04-28T18:14:44.112Z,46.78
2023-04-28T18:16:46.501Z,46.65
2023-04-28T18:18:48.497Z,45.33
2023-04-28T18:20:49.912Z,45.47
2023-04-28T18:22:51.537Z,45.08
2023-04-28T18:24:53.004Z,42.65
2023-04-28T18:26:54.424Z,42.30
2023-04-28T18:28:55.994Z,42.17
2023-04-28T18:30:57.963Z,39.85
2023-04-28T18:32:59.551Z,31.10
2023-04-28T18:35:01.088Z,21.85
2023-04-28T18:37:02.623Z,16.77
2023-04-28T18:39:06.199Z,12.32
2023-04-28T18:41:14.140Z,9.63
2023-04-28T18:43:16.071Z,7.50
2023-04-28T18:45:17.512Z,6.45
2023-04-28T18:47:19.598Z,6.00
2023-04-28T18:49:21.705Z,5.63
2023-04-28T18:51:23.170Z,6.53
2023-04-28T18:53:24.698Z,6.80
2023-04-28T18:55:26.169Z,7.82
2023-04-28T18:57:27.673Z,9.25
2023-04-28T18:59:30.113Z,8.60
2023-04-28T19:01:31.828Z,8.82
2023-04-28T19:03:33.814Z,8.32
2023-04-28T19:05:35.556Z,8.07
2023-04-28T19:07:37.957Z,8.23
2023-04-28T19:09:39.396Z,7.93
2023-04-28T19:11:40.813Z,7.07
2023-04-28T19:13:44.633Z,6.75
2023-04-28T19:15:46.180Z,6.50
2023-04-28T19:17:48.204Z,5.43
2023-04-28T19:19:49.785Z,5.32
2023-04-28T19:21:52.470Z,5.15
2023-04-28T19:23:54.020Z,4.90
2023-04-28T19:25:56.882Z,4.85
2023-04-28T19:27:58.440Z,17.60
2023-04-28T19:30:01.339Z,19.73
2023-04-28T19:32:02.849Z,18.02
2023-04-28T19:34:04.517Z,17.50
2023-04-28T19:36:07.446Z,18.27
2023-04-28T19:38:09.520Z,20.23
2023-04-28T19:40:11.648Z,19.33
2023-04-28T19:42:13.213Z,19.30
2023-04-28T19:44:14.705Z,19.83
2023-04-28T19:46:16.957Z,20.05
2023-04-28T19:48:19.325Z,19.38
2023-04-28T19:50:21.021Z,19.50
2023-04-28T19:52:23.276Z,17.83
2023-04-28T19:54:25.109Z,17.80
2023-04-28T19:56:26.934Z,17.65
2023-04-28T19:58:28.793Z,16.67
2023-04-28T20:00:32.285Z,16.48
2023-04-28T20:02:34.193Z,14.40
2023-04-28T20:04:36.712Z,13.60
2023-04-28T20:06:38.338Z,13.25
2023-04-28T20:08:39.759Z,14.05
2023-04-28T20:10:41.348Z,14.98
2023-04-28T20:12:42.871Z,14.50
2023-04-28T20:14:44.645Z,14.13
2023-04-28T20:16:46.140Z,13.73
2023-04-28T20:18:47.637Z,13.02
2023-04-28T20:20:52.503Z,13.75
2023-04-28T20:22:54.000Z,12.38
2023-04-28T20:24:57.661Z,12.73
2023-04-28T20:26:59.096Z,12.10
2023-04-28T20:29:00.567Z,11.13
2023-04-28T20:31:02.005Z,11.40
2023-04-28T20:33:03.690Z,11.55
2023-04-28T20:35:06.165Z,12.68
2023-04-28T20:37:08.254Z,12.18
2023-04-28T20:39:11.261Z,12.40
2023-04-28T20:41:12.795Z,12.52
2023-04-28T20:43:14.537Z,11.98
2023-04-28T20:45:16.642Z,12.65
2023-04-28T20:47:18.106Z,12.13
2023-04-28T20:49:19.533Z,11.90
2023-04-28T20:51:21.120Z,11.77
2023-04-28T20:53:22.654Z,11.15
2023-04-28T20:55:24.280Z,11.15
2023-04-28T20:57:25.726Z,10.77
2023-04-28T20:59:27.413Z,10.45
2023-04-28T21:01:29.031Z,10.45
2023-04-28T21:03:30.821Z,10.45
2023-04-28T21:05:32.396Z,10.35
2023-04-28T21:07:33.927Z,9.60
2023-04-28T21:09:37.394Z,9.00
2023-04-28T21:11:38.786Z,9.32
2023-04-28T21:13:42.637Z,9.00
2023-04-28T21:15:44.142Z,8.52
2023-04-28T21:17:45.734Z,8.35
2023-04-28T21:19:47.216Z,8.15
2023-04-28T21:21:48.657Z,8.02
2023-04-28T21:23:50.143Z,8.27
2023-04-28T21:25:52.183Z,7.70
2023-04-28T21:27:53.677Z,7.80
2023-04-28T21:29:55.151Z,7.32
2023-04-28T21:31:56.696Z,7.78
2023-04-28T21:33:58.184Z,8.10
2023-04-28T21:36:05.459Z,6.75
2023-04-28T21:38:07.798Z,6.85
2023-04-28T21:40:10.276Z,6.97
2023-04-28T21:42:11.801Z,7.05
2023-04-28T21:44:13.356Z,6.43
2023-04-28T21:46:15.054Z,7.03
2023-04-28T21:48:17.065Z,6.13
2023-04-28T21:50:18.875Z,6.82
2023-04-28T21:52:20.316Z,5.93
2023-04-28T21:54:21.794Z,5.80
2023-04-28T21:56:23.242Z,5.82
2023-04-28T21:58:24.809Z,6.07
2023-04-28T22:00:27.883Z,6.03
2023-04-28T22:02:29.788Z,5.65
2023-04-28T22:04:31.586Z,5.68
2023-04-28T22:06:33.160Z,5.55
2023-04-28T22:08:34.593Z,5.18
2023-04-28T22:10:36.466Z,4.82
2023-04-28T22:12:38.525Z,5.38
2023-04-28T22:14:41.564Z,5.35
2023-04-28T22:16:43.206Z,4.85
2023-04-28T22:18:44.728Z,4.93
2023-04-28T22:20:46.795Z,5.00
2023-04-28T22:22:48.201Z,4.57
2023-04-28T22:24:50.195Z,4.80
2023-04-28T22:26:51.875Z,4.63
2023-04-28T22:28:54.184Z,4.68
2023-04-28T22:30:55.660Z,4.18
2023-04-28T22:32:57.229Z,4.30
2023-04-28T22:34:58.731Z,4.03
2023-04-28T22:37:00.165Z,4.32
2023-04-28T22:39:01.583Z,4.22
2023-04-28T22:41:03.317Z,4.53
2023-04-28T22:43:04.744Z,3.95
2023-04-28T22:45:06.868Z,4.20
2023-04-28T22:47:08.437Z,3.65
2023-04-28T22:49:09.883Z,3.17
2023-04-28T22:51:11.290Z,4.07
2023-04-28T22:53:12.719Z,3.50
2023-04-28T22:55:14.280Z,3.42
2023-04-28T22:57:15.872Z,3.15
2023-04-28T22:59:17.563Z,3.40
2023-04-28T23:01:19.043Z,3.22
2023-04-28T23:03:21.473Z,3.20
2023-04-28T23:05:25.055Z,2.60
2023-04-28T23:07:26.727Z,2.97
2023-04-28T23:09:28.557Z,3.28
2023-04-28T23:11:30.013Z,2.83
2023-04-28T23:13:31.596Z,3.20
2023-04-28T23:15:33.001Z,2.55
2023-04-28T23:17:34.570Z,3.00
2023-04-28T23:19:38.772Z,2.70
2023-04-28T23:21:40.258Z,2.50
2023-04-28T23:23:41.945Z,2.60
2023-04-28T23:25:43.735Z,2.50
2023-04-28T23:27:45.355Z,2.78
2023-04-28T23:29:46.805Z,2.60
2023-04-28T23:31:52.516Z,2.72
2023-04-28T23:33:54.099Z,2.53
2023-04-28T23:35:55.663Z,2.15
2023-04-28T23:37:57.455Z,2.75
2023-04-28T23:39:59.054Z,2.53
2023-04-28T23:42:01.751Z,2.70
2023-04-28T23:44:03.566Z,2.50
2023-04-28T23:46:06.685Z,2.38
2023-04-28T23:48:08.332Z,2.45
2023-04-28T23:50:10.178Z,2.40
2023-04-28T23:52:11.576Z,2.38
2023-04-28T23:54:13.094Z,2.65
2023-04-28T23:56:14.651Z,2.50
2023-04-28T23:58:16.326Z,1.95
